createdAt,value
2019-02-02T10:44:17.418Z,993.16
2019-02-02T10:45:17.379Z,993.18
2019-02-02T10:46:17.346Z,993.18
2019-02-02T10:47:17.315Z,993.14
2019-02-02T10:48:17.301Z,993.16
2019-02-02T10:49:17.252Z,993.21
2019-02-02T10:50:17.217Z,993.15
2019-02-02T10:51:17.180Z,993.18
2019-02-02T10:52:17.156Z,993.24
2019-02-02T10:53:17.109Z,993.26
2019-02-02T10:54:17.104Z,993.23
2019-02-02T10:55:17.039Z,993.17
2019-02-02T10:56:17.015Z,993.32
2019-02-02T10:57:16.972Z,993.30
2019-02-02T10:58:16.932Z,993.26
2019-02-02T10:59:16.898Z,993.28
2019-02-02T11:00:16.874Z,993.28
2019-02-02T11:01:16.827Z,993.27
2019-02-02T11:02:17.866Z,993.27
2019-02-02T11:03:16.745Z,993.32
2019-02-02T11:04:16.744Z,993.35
2019-02-02T11:05:16.737Z,993.35
2019-02-02T11:06:16.651Z,993.41
2019-02-02T11:07:16.676Z,993.40
2019-02-02T11:08:16.685Z,993.43
2019-02-02T11:09:16.646Z,993.44
2019-02-02T11:10:18.301Z,993.47
2019-02-02T11:11:16.439Z,993.48
2019-02-02T11:12:16.496Z,993.49
2019-02-02T11:13:16.589Z,993.55
2019-02-02T11:14:16.435Z,993.54
2019-02-02T11:15:16.301Z,993.54
2019-02-02T11:16:16.268Z,993.59
2019-02-02T11:17:16.240Z,993.58
2019-02-02T11:18:16.220Z,993.57
2019-02-02T11:19:16.255Z,993.61
2019-02-02T11:20:17.688Z,993.61
2019-02-02T11:21:16.044Z,993.59
2019-02-02T11:22:16.039Z,993.61
2019-02-02T11:23:16.118Z,993.58
2019-02-02T11:24:18.860Z,993.56
2019-02-02T11:25:15.904Z,993.56
2019-02-02T11:26:15.989Z,993.52
2019-02-02T11:27:15.982Z,993.58
2019-02-02T11:28:15.904Z,993.60
2019-02-02T11:29:15.789Z,993.65
2019-02-02T11:30:15.819Z,993.61
2019-02-02T11:31:15.688Z,993.61
2019-02-02T11:32:15.648Z,993.68
2019-02-02T11:33:15.616Z,993.63
2019-02-02T11:34:15.578Z,993.69
2019-02-02T11:35:15.685Z,993.64
2019-02-02T11:36:15.557Z,993.68
2019-02-02T11:37:15.489Z,993.72
2019-02-02T11:38:15.433Z,993.70
2019-02-02T11:39:15.408Z,993.79
2019-02-02T11:40:15.361Z,993.72
2019-02-02T11:41:15.326Z,993.78
2019-02-02T11:42:15.299Z,993.79
2019-02-02T11:43:15.259Z,993.81
2019-02-02T11:44:15.227Z,993.84
2019-02-02T11:45:15.202Z,993.76
2019-02-02T11:46:15.153Z,993.83
2019-02-02T11:47:15.114Z,993.91
2019-02-02T11:48:15.277Z,993.90
2019-02-02T11:49:15.061Z,993.88
2019-02-02T11:50:15.013Z,993.94
2019-02-02T11:51:14.981Z,993.95
2019-02-02T11:52:14.949Z,993.90
2019-02-02T11:53:14.916Z,993.89
2019-02-02T11:54:14.897Z,993.93
2019-02-02T11:55:14.853Z,993.95
2019-02-02T11:56:14.825Z,993.97
2019-02-02T11:57:14.797Z,994.04
2019-02-02T11:58:14.765Z,993.96
2019-02-02T11:59:14.732Z,993.95
2019-02-02T12:00:16.413Z,993.98
2019-02-02T12:01:14.670Z,993.99
2019-02-02T12:02:14.994Z,994.04
2019-02-02T12:03:14.599Z,994.04
2019-02-02T12:04:14.565Z,994.04
2019-02-02T12:05:14.527Z,994.12
2019-02-02T12:06:14.501Z,994.14
2019-02-02T12:07:14.454Z,994.14
2019-02-02T12:08:14.418Z,994.22
2019-02-02T12:09:14.383Z,994.22
2019-02-02T12:10:14.347Z,994.21
2019-02-02T12:11:14.309Z,994.22
2019-02-02T12:12:14.284Z,994.26
2019-02-02T12:13:14.229Z,994.33
2019-02-02T12:14:14.195Z,994.27
2019-02-02T12:15:14.156Z,994.32
2019-02-02T12:16:14.112Z,994.30
2019-02-02T12:17:14.071Z,994.28
2019-02-02T12:18:14.049Z,994.33
2019-02-02T12:19:13.996Z,994.35
2019-02-02T12:20:13.961Z,994.26
2019-02-02T12:21:13.923Z,994.35
2019-02-02T12:22:13.885Z,994.35
2019-02-02T12:23:13.846Z,994.34
2019-02-02T12:24:16.220Z,994.35
2019-02-02T12:25:13.767Z,994.42
2019-02-02T12:26:13.719Z,994.39
2019-02-02T12:27:13.680Z,994.39
2019-02-02T12:28:13.643Z,994.45
2019-02-02T12:29:13.604Z,994.41
2019-02-02T12:30:13.569Z,994.48
2019-02-02T12:31:13.522Z,994.48
2019-02-02T12:32:13.486Z,994.49
2019-02-02T12:33:13.443Z,994.54
2019-02-02T12:34:13.401Z,994.54
2019-02-02T12:35:13.360Z,994.55
2019-02-02T12:36:13.333Z,994.56
2019-02-02T12:37:13.282Z,994.59
2019-02-02T12:38:13.286Z,994.64
2019-02-02T12:39:13.202Z,994.65
2019-02-02T12:40:13.167Z,994.63
2019-02-02T12:41:13.117Z,994.66
2019-02-02T12:42:13.093Z,994.65
2019-02-02T12:43:13.040Z,994.67
2019-02-02T12:44:12.997Z,994.66
2019-02-02T12:45:12.958Z,994.69
2019-02-02T12:46:12.921Z,994.74
2019-02-02T12:47:12.883Z,994.70
2019-02-02T12:48:12.855Z,994.71
2019-02-02T12:49:12.798Z,994.76
2019-02-02T12:50:12.757Z,994.70
2019-02-02T12:51:12.720Z,994.73
2019-02-02T12:52:12.677Z,994.74
2019-02-02T12:53:12.633Z,994.76
2019-02-02T12:54:12.603Z,994.75
2019-02-02T12:55:12.550Z,994.77
2019-02-02T12:56:12.513Z,994.81
2019-02-02T12:57:12.469Z,994.81
2019-02-02T12:58:12.431Z,994.80
2019-02-02T12:59:12.394Z,994.81
2019-02-02T13:00:12.368Z,994.88
2019-02-02T13:01:12.322Z,994.86
2019-02-02T13:02:12.289Z,994.85
2019-02-02T13:03:12.244Z,994.86
2019-02-02T13:04:12.199Z,994.93
2019-02-02T13:05:12.159Z,994.91
2019-02-02T13:06:12.130Z,994.90
2019-02-02T13:07:12.075Z,994.92
2019-02-02T13:08:12.031Z,994.93
2019-02-02T13:09:11.994Z,994.97
2019-02-02T13:10:11.956Z,994.95
2019-02-02T13:11:11.920Z,994.99
2019-02-02T13:12:11.896Z,994.92
2019-02-02T13:13:11.845Z,994.99
2019-02-02T13:14:11.804Z,995.03
2019-02-02T13:15:11.758Z,995.00
2019-02-02T13:16:11.724Z,995.07
2019-02-02T13:17:11.678Z,995.08
2019-02-02T13:18:11.649Z,995.04
2019-02-02T13:19:13.910Z,995.07
2019-02-02T13:20:11.562Z,995.06
2019-02-02T13:21:11.514Z,995.12
2019-02-02T13:22:11.474Z,995.15
2019-02-02T13:23:11.433Z,995.11
2019-02-02T13:24:11.409Z,995.17
2019-02-02T13:25:11.375Z,995.18
2019-02-02T13:26:11.526Z,995.12
2019-02-02T13:31:00.336Z,0.00
2019-02-02T13:32:00.298Z,0.00
2019-02-02T13:33:00.266Z,0.00
2019-02-02T13:35:55.128Z,995.29
2019-02-02T13:36:55.107Z,995.22
2019-02-02T13:37:55.144Z,995.32
2019-02-02T13:38:55.085Z,995.40
2019-02-02T13:39:55.083Z,995.39
2019-02-02T13:40:55.069Z,995.39
2019-02-02T13:41:55.026Z,995.47
2019-02-02T13:42:54.997Z,995.47
2019-02-02T13:43:54.976Z,995.49
2019-02-02T13:44:21.834Z,995.49
2019-02-02T13:45:21.797Z,995.51
2019-02-02T13:46:21.772Z,995.55
2019-02-02T14:03:29.371Z,995.73
2019-02-02T14:04:29.347Z,995.78
2019-02-02T14:05:36.837Z,995.80
2019-02-02T14:06:36.830Z,995.80
2019-02-02T14:07:36.837Z,995.87
2019-02-02T14:08:36.821Z,995.90
2019-02-02T14:09:36.818Z,995.93
2019-02-02T14:10:36.800Z,995.91
2019-02-02T14:11:36.788Z,995.93
2019-02-02T14:12:36.775Z,995.93
2019-02-02T14:13:36.794Z,995.97
2019-02-02T14:15:02.102Z,99601.02
2019-02-02T14:16:02.075Z,99604.64
2019-02-02T14:17:02.042Z,99599.02
2019-02-02T14:18:02.014Z,99606.18
2019-02-02T14:19:01.996Z,99603.66
2019-02-02T14:20:01.956Z,99611.94
2019-02-02T14:21:01.919Z,99611.73
2019-02-02T15:53:39.070Z,0.00
2019-02-02T15:54:59.285Z,997.68
2019-02-02T15:55:59.250Z,997.69
2019-02-02T15:56:59.204Z,997.69
2019-02-02T15:57:59.182Z,997.70
2019-02-02T15:58:59.114Z,997.73
2019-02-02T15:59:59.067Z,997.66
2019-02-02T20:38:57.664Z,1002.90
2019-02-02T20:39:57.653Z,1002.94
2019-02-02T20:40:57.657Z,1003.01
2019-02-02T20:42:01.047Z,1002.96
2019-02-02T20:44:35.481Z,1002.97
